Time;durP1;ratioP1;P1;durP2;ratioP2;P2;SDS_P1;SDS_P2;PMS_P1;PMS_P2;Temp;Humidity;BMP_temperature;BMP_pressure;BME280_temperature;BME280_humidity;BME280_pressure;Samples;Min_cycle;Max_cycle;Signal;HPM_P1;HPM_P2
2021/01/22 00:01:31;;;;;;;2.92;1.23;;;;;;;;;;5014917;28;20045;-65
2021/01/22 00:04:16;;;;;;;4.15;1.88;;;;;;;;;;5014578;28;20045;-65
2021/01/22 00:07:02;;;;;;;2.28;1.48;;;;;;;;;;5014622;28;20424;-66
2021/01/22 00:09:47;;;;;;;1.20;0.80;;;;;;;;;;5015124;28;20492;-66
2021/01/22 00:12:32;;;;;;;1.65;0.70;;;;;;;;;;5014970;28;20045;-66
2021/01/22 00:15:17;;;;;;;0.88;0.52;;;;;;;;;;5014661;28;20053;-65
2021/01/22 00:18:03;;;;;;;1.15;0.75;;;;;;;;;;5016146;28;20500;-65
2021/01/22 00:20:48;;;;;;;0.85;0.43;;;;;;;;;;5016394;28;20045;-65
2021/01/22 00:23:37;;;;;;;0.35;0.35;;;;;;;;;;5015131;28;20050;-66
2021/01/22 00:26:22;;;;;;;0.98;0.40;;;;;;;;;;5014787;28;20046;-65
2021/01/22 00:29:07;;;;;;;1.08;0.60;;;;;;;;;;5014451;28;20042;-65
2021/01/22 00:31:53;;;;;;;0.52;0.32;;;;;;;;;;4999382;28;20091;-65
2021/01/22 00:34:38;;;;;;;1.73;0.50;;;;;;;;;;5014051;28;20034;-65
2021/01/22 00:37:23;;;;;;;0.68;0.30;;;;;;;;;;5014207;28;20046;-65
2021/01/22 00:40:09;;;;;;;0.95;0.47;;;;;;;;;;5014091;28;20046;-65
2021/01/22 00:42:54;;;;;;;1.95;0.60;;;;;;;;;;5014258;28;20061;-65
2021/01/22 00:45:39;;;;;;;1.75;0.52;;;;;;;;;;5013806;28;20042;-65
2021/01/22 00:48:25;;;;;;;2.28;0.50;;;;;;;;;;5014015;28;20046;-65
2021/01/22 00:51:11;;;;;;;2.58;0.60;;;;;;;;;;5014092;28;20108;-64
2021/01/22 00:53:56;;;;;;;2.08;0.68;;;;;;;;;;5013809;28;20042;-65
2021/01/22 00:56:41;;;;;;;1.33;0.57;;;;;;;;;;4998752;28;20054;-65
2021/01/22 00:59:27;;;;;;;3.10;0.70;;;;;;;;;;4999054;28;20125;-65
2021/01/22 01:02:12;;;;;;;1.23;0.60;;;;;;;;;;5013740;28;20077;-65
2021/01/22 01:04:57;;;;;;;0.93;0.68;;;;;;;;;;5013755;28;20046;-65
2021/01/22 01:07:43;;;;;;;1.05;0.70;;;;;;;;;;5013436;28;20049;-65
2021/01/22 01:10:29;;;;;;;1.88;0.60;;;;;;;;;;4998770;28;20563;-65
2021/01/22 01:13:34;;;;;;;2.95;0.70;;;;;;;;;;5013548;28;20434;-65
2021/01/22 01:16:36;;;;;;;1.87;1.30;;;;;;;;;;4998445;28;20439;-65
2021/01/22 01:19:21;;;;;;;0.43;0.35;;;;;;;;;;5013530;28;20045;-65
2021/01/22 01:22:07;;;;;;;1.67;0.50;;;;;;;;;;5013350;28;20042;-65
2021/01/22 01:24:52;;;;;;;3.13;0.70;;;;;;;;;;5013316;28;20060;-65
2021/01/22 01:27:37;;;;;;;2.05;0.68;;;;;;;;;;5012648;28;20452;-65
2021/01/22 01:30:23;;;;;;;2.30;0.50;;;;;;;;;;5013228;28;20046;-65
2021/01/22 01:33:10;;;;;;;1.70;0.55;;;;;;;;;;5013261;28;20411;-65
2021/01/22 01:35:55;;;;;;;1.17;0.38;;;;;;;;;;5013175;28;20074;-65
2021/01/22 01:38:40;;;;;;;0.60;0.52;;;;;;;;;;5012829;28;20488;-65
2021/01/22 01:41:25;;;;;;;2.40;0.50;;;;;;;;;;5012979;28;20037;-65
2021/01/22 01:44:11;;;;;;;1.35;0.57;;;;;;;;;;5012952;28;20046;-65
2021/01/22 01:46:56;;;;;;;1.00;0.32;;;;;;;;;;5012570;28;20042;-65
2021/01/22 01:49:41;;;;;;;2.17;0.50;;;;;;;;;;5012141;28;20054;-65
2021/01/22 01:52:27;;;;;;;0.80;0.32;;;;;;;;;;5012887;28;20037;-65
2021/01/22 01:55:12;;;;;;;1.73;0.60;;;;;;;;;;5011745;28;20046;-65
2021/01/22 01:57:58;;;;;;;1.08;0.40;;;;;;;;;;5012642;28;20054;-65
2021/01/22 02:00:43;;;;;;;1.48;0.60;;;;;;;;;;5012724;28;20125;-65
2021/01/22 02:03:29;;;;;;;2.83;0.75;;;;;;;;;;4997775;28;20046;-66
2021/01/22 02:06:14;;;;;;;1.63;0.40;;;;;;;;;;5012762;28;20050;-66
2021/01/22 02:09:00;;;;;;;0.60;0.40;;;;;;;;;;5012011;28;20069;-66
2021/01/22 02:11:45;;;;;;;2.40;0.40;;;;;;;;;;5012468;28;20132;-66
2021/01/22 02:14:30;;;;;;;1.80;0.70;;;;;;;;;;5011658;28;20500;-66
2021/01/22 02:17:16;;;;;;;2.20;0.40;;;;;;;;;;5012338;28;20042;-65
2021/01/22 02:20:15;;;;;;;0.97;0.50;;;;;;;;;;5000063;28;20070;-65
2021/01/22 02:23:01;;;;;;;1.38;0.57;;;;;;;;;;4998240;28;20437;-66
2021/01/22 02:25:46;;;;;;;4.35;1.65;;;;;;;;;;5013508;28;20125;-66
2021/01/22 02:28:31;;;;;;;3.95;0.75;;;;;;;;;;4998192;28;20046;-66
2021/01/22 02:31:16;;;;;;;4.63;0.93;;;;;;;;;;5011837;28;20046;-66
2021/01/22 02:34:02;;;;;;;1.83;0.77;;;;;;;;;;5011870;28;20050;-65
2021/01/22 02:36:47;;;;;;;3.30;1.27;;;;;;;;;;5012399;28;20042;-65
2021/01/22 02:39:33;;;;;;;1.55;0.98;;;;;;;;;;5012511;28;20127;-66
2021/01/22 02:42:18;;;;;;;2.05;1.13;;;;;;;;;;4997745;28;20444;-65
2021/01/22 02:45:03;;;;;;;3.53;1.05;;;;;;;;;;5012283;28;20042;-65
2021/01/22 02:47:49;;;;;;;3.95;1.63;;;;;;;;;;4997842;28;20514;-65
2021/01/22 02:50:35;;;;;;;2.20;1.10;;;;;;;;;;5012387;28;20042;-65
2021/01/22 02:53:21;;;;;;;3.30;1.55;;;;;;;;;;5012395;28;20054;-65
2021/01/22 02:56:08;;;;;;;4.55;1.70;;;;;;;;;;5012958;28;20129;-66
2021/01/22 02:58:56;;;;;;;5.15;1.67;;;;;;;;;;4998014;28;20057;-65
2021/01/22 03:01:48;;;;;;;3.65;1.83;;;;;;;;;;5012273;28;20046;-66
2021/01/22 03:04:35;;;;;;;3.03;1.67;;;;;;;;;;5011097;28;20488;-66
2021/01/22 03:07:24;;;;;;;4.22;1.90;;;;;;;;;;5011544;28;20050;-65
2021/01/22 03:10:09;;;;;;;5.53;1.92;;;;;;;;;;5011939;28;20046;-65
2021/01/22 03:12:55;;;;;;;4.28;2.00;;;;;;;;;;5011266;28;20054;-65
2021/01/22 03:15:40;;;;;;;8.30;2.35;;;;;;;;;;5012598;28;20054;-65
2021/01/22 03:18:25;;;;;;;3.78;2.00;;;;;;;;;;5010652;28;20133;-65
2021/01/22 03:21:10;;;;;;;5.35;2.03;;;;;;;;;;5014667;28;20448;-65
2021/01/22 03:23:56;;;;;;;5.10;2.15;;;;;;;;;;5000891;28;20042;-65
2021/01/22 03:26:41;;;;;;;5.60;2.13;;;;;;;;;;5015490;28;20046;-65
2021/01/22 03:29:26;;;;;;;3.55;1.80;;;;;;;;;;5015512;28;20197;-65
2021/01/22 03:32:11;;;;;;;4.28;1.67;;;;;;;;;;5015476;28;20049;-65
2021/01/22 03:34:57;;;;;;;4.97;1.63;;;;;;;;;;5015391;28;20489;-65
2021/01/22 03:37:42;;;;;;;4.10;1.55;;;;;;;;;;5015327;28;20038;-65
2021/01/22 03:40:27;;;;;;;10.05;2.42;;;;;;;;;;5015195;28;20045;-65
2021/01/22 03:43:13;;;;;;;4.03;1.63;;;;;;;;;;5015317;28;20045;-65
2021/01/22 03:45:58;;;;;;;4.13;1.75;;;;;;;;;;5006339;28;20042;-65
2021/01/22 03:48:45;;;;;;;3.63;1.73;;;;;;;;;;5005656;28;20456;-65
2021/01/22 03:51:30;;;;;;;4.25;1.75;;;;;;;;;;5006148;28;20038;-65
2021/01/22 03:54:16;;;;;;;7.70;2.20;;;;;;;;;;5004541;28;20038;-65
2021/01/22 03:57:01;;;;;;;7.55;2.40;;;;;;;;;;5005084;28;20042;-65
2021/01/22 03:59:47;;;;;;;4.15;2.63;;;;;;;;;;5003296;28;20046;-65
2021/01/22 04:02:32;;;;;;;4.80;2.40;;;;;;;;;;5003555;28;20038;-65
2021/01/22 04:05:18;;;;;;;3.28;2.17;;;;;;;;;;5005439;28;20432;-65
2021/01/22 04:08:03;;;;;;;4.72;3.25;;;;;;;;;;5007123;28;20046;-65
2021/01/22 04:10:49;;;;;;;7.78;3.60;;;;;;;;;;5006724;28;20045;-65
2021/01/22 04:13:34;;;;;;;7.75;3.13;;;;;;;;;;5008776;28;20140;-65
2021/01/22 04:16:20;;;;;;;6.10;2.78;;;;;;;;;;5006895;28;20866;-65
2021/01/22 04:19:05;;;;;;;5.95;2.92;;;;;;;;;;5008459;28;20046;-65
2021/01/22 04:21:50;;;;;;;6.43;3.40;;;;;;;;;;5012176;28;20037;-65
2021/01/22 04:24:36;;;;;;;6.32;3.75;;;;;;;;;;5009323;28;20145;-65
2021/01/22 04:27:21;;;;;;;6.50;3.38;;;;;;;;;;5005503;28;20042;-65
2021/01/22 04:30:07;;;;;;;6.63;4.53;;;;;;;;;;5007844;28;20129;-65
2021/01/22 04:32:52;;;;;;;8.25;4.47;;;;;;;;;;5002234;28;20509;-65
2021/01/22 04:35:37;;;;;;;8.38;4.10;;;;;;;;;;5011344;28;20122;-65
2021/01/22 04:38:22;;;;;;;8.38;3.90;;;;;;;;;;5011397;28;20037;-65
2021/01/22 04:41:08;;;;;;;7.05;4.35;;;;;;;;;;5005821;28;20096;-65
2021/01/22 04:43:53;;;;;;;8.15;4.47;;;;;;;;;;5009192;28;20071;-64
2021/01/22 04:46:38;;;;;;;8.73;5.10;;;;;;;;;;5010743;28;20034;-66
2021/01/22 04:49:24;;;;;;;12.73;5.47;;;;;;;;;;5007522;28;20045;-64
2021/01/22 04:52:11;;;;;;;9.20;6.38;;;;;;;;;;5008912;28;20133;-68
2021/01/22 04:54:57;;;;;;;10.10;5.80;;;;;;;;;;4993775;28;20456;-65
2021/01/22 04:57:43;;;;;;;15.02;7.10;;;;;;;;;;5007070;28;20049;-64
2021/01/22 05:00:28;;;;;;;12.18;6.63;;;;;;;;;;5010584;28;20048;-65
2021/01/22 05:03:15;;;;;;;14.75;6.72;;;;;;;;;;5007807;28;20120;-66
2021/01/22 05:06:00;;;;;;;15.98;6.82;;;;;;;;;;4990729;28;20042;-65
2021/01/22 05:08:45;;;;;;;18.33;8.35;;;;;;;;;;5005497;28;20045;-66
2021/01/22 05:11:30;;;;;;;18.70;8.23;;;;;;;;;;5009901;28;20521;-64
2021/01/22 05:14:16;;;;;;;18.77;8.38;;;;;;;;;;5007499;28;20408;-64
2021/01/22 05:17:01;;;;;;;19.75;8.20;;;;;;;;;;5007910;28;20033;-65
2021/01/22 05:19:46;;;;;;;21.90;9.65;;;;;;;;;;5001629;28;20042;-65
2021/01/22 05:22:31;;;;;;;21.00;10.65;;;;;;;;;;5013291;28;20567;-65
2021/01/22 05:25:16;;;;;;;22.50;12.07;;;;;;;;;;4992752;28;20497;-65
2021/01/22 05:28:02;;;;;;;19.70;12.25;;;;;;;;;;4992935;28;20400;-65
2021/01/22 05:30:56;;;;;;;21.98;12.10;;;;;;;;;;5001188;28;20046;-65
2021/01/22 05:33:42;;;;;;;28.88;12.80;;;;;;;;;;5013171;28;20038;-65
2021/01/22 05:36:29;;;;;;;24.80;12.95;;;;;;;;;;4993568;28;20050;-65
2021/01/22 05:39:19;;;;;;;33.58;13.93;;;;;;;;;;4993561;28;20500;-64
2021/01/22 05:42:04;;;;;;;34.75;15.88;;;;;;;;;;5008088;28;20046;-65
2021/01/22 05:44:55;;;;;;;32.28;14.73;;;;;;;;;;5012701;28;20037;-65
2021/01/22 05:47:40;;;;;;;31.13;15.32;;;;;;;;;;5018590;23;20041;-66
2021/01/22 05:50:26;;;;;;;32.55;16.23;;;;;;;;;;5036134;28;20045;-66
2021/01/22 05:53:15;;;;;;;38.72;16.17;;;;;;;;;;5039904;28;20052;-66
2021/01/22 05:56:10;;;;;;;31.98;16.02;;;;;;;;;;5031149;28;20498;-66
2021/01/22 05:58:55;;;;;;;36.80;17.77;;;;;;;;;;5052360;28;20119;-66
2021/01/22 06:01:40;;;;;;;33.25;16.85;;;;;;;;;;5026141;28;20037;-66
2021/01/22 06:04:25;;;;;;;38.25;17.83;;;;;;;;;;5032606;28;20045;-66
2021/01/22 06:07:14;;;;;;;35.58;18.33;;;;;;;;;;5033283;28;20168;-66
2021/01/22 06:09:59;;;;;;;35.45;17.75;;;;;;;;;;5031462;28;20045;-66
2021/01/22 06:12:47;;;;;;;37.35;18.73;;;;;;;;;;5032445;28;20053;-67
2021/01/22 06:15:32;;;;;;;33.28;19.23;;;;;;;;;;5030360;28;20113;-66
2021/01/22 06:18:19;;;;;;;37.97;19.42;;;;;;;;;;5047023;28;20038;-66
2021/01/22 06:21:05;;;;;;;37.88;20.33;;;;;;;;;;5051016;28;20041;-66
2021/01/22 06:23:51;;;;;;;29.52;17.77;;;;;;;;;;5052126;28;20037;-66
2021/01/22 06:26:37;;;;;;;32.10;18.85;;;;;;;;;;5049368;28;20044;-66
2021/01/22 06:29:23;;;;;;;35.53;18.98;;;;;;;;;;5049163;28;20049;-67
2021/01/22 06:32:08;;;;;;;31.38;19.83;;;;;;;;;;5034573;28;20515;-66
2021/01/22 06:34:53;;;;;;;32.00;20.50;;;;;;;;;;5051005;28;20041;-66
2021/01/22 06:37:38;;;;;;;30.35;18.95;;;;;;;;;;5051785;28;20049;-66
2021/01/22 06:40:23;;;;;;;33.33;19.80;;;;;;;;;;5036432;28;20041;-66
2021/01/22 06:43:08;;;;;;;26.33;17.50;;;;;;;;;;5031838;28;20052;-66
2021/01/22 06:45:58;;;;;;;27.15;19.80;;;;;;;;;;5036591;28;20037;-67
2021/01/22 06:48:52;;;;;;;24.05;17.40;;;;;;;;;;5051629;28;20131;-67
2021/01/22 06:51:37;;;;;;;27.98;17.65;;;;;;;;;;5050055;28;20495;-67
2021/01/22 06:54:24;;;;;;;23.48;16.20;;;;;;;;;;5040088;28;20048;-67
2021/01/22 06:57:10;;;;;;;23.63;15.25;;;;;;;;;;5054021;28;20045;-67
2021/01/22 06:59:55;;;;;;;23.45;16.17;;;;;;;;;;5052778;28;20131;-67
2021/01/22 07:02:41;;;;;;;25.45;15.90;;;;;;;;;;5055649;28;20445;-67
2021/01/22 07:05:35;;;;;;;27.58;15.88;;;;;;;;;;5052615;28;20044;-66
2021/01/22 07:08:21;;;;;;;23.27;16.15;;;;;;;;;;5042862;28;20480;-67
2021/01/22 07:11:07;;;;;;;26.77;15.48;;;;;;;;;;5034699;28;20079;-67
2021/01/22 07:13:53;;;;;;;21.75;15.55;;;;;;;;;;5055581;28;20072;-67
2021/01/22 07:16:38;;;;;;;24.83;15.00;;;;;;;;;;5037761;28;20495;-67
2021/01/22 07:19:23;;;;;;;16.88;13.88;;;;;;;;;;5034622;28;20075;-67
2021/01/22 07:22:13;;;;;;;29.63;15.02;;;;;;;;;;5039887;28;20403;-67
2021/01/22 07:24:59;;;;;;;21.10;15.32;;;;;;;;;;5036206;28;20034;-67
2021/01/22 07:27:45;;;;;;;21.48;13.60;;;;;;;;;;5044008;28;20045;-67
2021/01/22 07:30:39;;;;;;;23.35;14.52;;;;;;;;;;5043594;28;20416;-67
2021/01/22 07:33:31;;;;;;;21.52;14.77;;;;;;;;;;5043712;28;20103;-67
2021/01/22 07:36:19;;;;;;;19.52;13.82;;;;;;;;;;5041647;28;20033;-67
2021/01/22 07:39:04;;;;;;;18.85;13.55;;;;;;;;;;5052896;28;20064;-67
2021/01/22 07:41:49;;;;;;;19.60;13.18;;;;;;;;;;5055125;28;20045;-67
2021/01/22 07:44:35;;;;;;;24.08;13.10;;;;;;;;;;5041070;28;20457;-67
2021/01/22 07:47:27;;;;;;;20.42;15.10;;;;;;;;;;5034741;28;20435;-66
2021/01/22 07:50:12;;;;;;;19.40;11.75;;;;;;;;;;5037520;28;20075;-67
2021/01/22 07:52:57;;;;;;;20.95;13.85;;;;;;;;;;5054900;28;20049;-67
2021/01/22 07:55:42;;;;;;;19.63;13.57;;;;;;;;;;5053823;28;20044;-67
2021/01/22 07:58:28;;;;;;;25.00;15.32;;;;;;;;;;5031994;28;20064;-67
2021/01/22 08:01:23;;;;;;;20.35;13.40;;;;;;;;;;5045676;28;20038;-67
2021/01/22 08:04:09;;;;;;;26.23;15.20;;;;;;;;;;5052483;28;20049;-67
2021/01/22 08:06:54;;;;;;;28.65;15.75;;;;;;;;;;5032336;28;20042;-67
2021/01/22 08:09:51;;;;;;;22.83;15.40;;;;;;;;;;5034519;28;20042;-67
2021/01/22 08:12:37;;;;;;;25.75;14.88;;;;;;;;;;5031143;28;20057;-67
2021/01/22 08:15:22;;;;;;;24.27;15.55;;;;;;;;;;5028440;28;20049;-67
2021/01/22 08:18:08;;;;;;;25.73;15.68;;;;;;;;;;5030458;28;20073;-67
2021/01/22 08:20:53;;;;;;;22.27;14.40;;;;;;;;;;5029503;28;20053;-67
2021/01/22 08:23:42;;;;;;;28.25;15.25;;;;;;;;;;5030473;28;20046;-67
2021/01/22 08:26:28;;;;;;;28.48;15.02;;;;;;;;;;5027492;28;20549;-68
2021/01/22 08:29:13;;;;;;;25.98;14.25;;;;;;;;;;5028628;28;20092;-67
2021/01/22 08:31:58;;;;;;;29.13;14.35;;;;;;;;;;5032647;28;20042;-67
2021/01/22 08:34:43;;;;;;;25.95;14.50;;;;;;;;;;5029069;28;20037;-67
2021/01/22 08:37:29;;;;;;;24.63;15.02;;;;;;;;;;5030200;28;20042;-67
2021/01/22 08:40:14;;;;;;;22.85;14.45;;;;;;;;;;5032573;28;20038;-67
2021/01/22 08:42:59;;;;;;;23.40;15.07;;;;;;;;;;5031813;28;20038;-67
2021/01/22 08:46:07;;;;;;;28.45;14.27;;;;;;;;;;5026920;28;20046;-68
2021/01/22 08:48:52;;;;;;;23.70;12.57;;;;;;;;;;5030845;28;20045;-68
2021/01/22 08:51:39;;;;;;;24.00;13.93;;;;;;;;;;5028462;28;20038;-68
2021/01/22 08:54:37;;;;;;;23.92;13.15;;;;;;;;;;5029465;28;20034;-68
2021/01/22 08:57:22;;;;;;;23.30;11.85;;;;;;;;;;5029662;28;20049;-67
2021/01/22 09:00:08;;;;;;;23.55;12.13;;;;;;;;;;5028401;28;20061;-68
2021/01/22 09:02:54;;;;;;;23.55;11.70;;;;;;;;;;5032149;28;20043;-67
2021/01/22 09:05:48;;;;;;;27.05;13.10;;;;;;;;;;5033308;28;20484;-67
2021/01/22 09:08:33;;;;;;;21.08;13.80;;;;;;;;;;5032529;28;20045;-67
2021/01/22 09:11:37;;;;;;;29.25;14.85;;;;;;;;;;5030339;28;20045;-67
2021/01/22 09:14:22;;;;;;;25.02;13.20;;;;;;;;;;5029503;28;20476;-67
2021/01/22 09:17:07;;;;;;;31.50;14.02;;;;;;;;;;5027653;28;20407;-68
2021/01/22 09:19:58;;;;;;;27.80;14.20;;;;;;;;;;5027614;28;20053;-68
2021/01/22 09:22:44;;;;;;;27.70;15.48;;;;;;;;;;5030365;28;20049;-67
2021/01/22 09:25:29;;;;;;;32.40;15.98;;;;;;;;;;5028654;28;20033;-67
2021/01/22 09:28:14;;;;;;;26.45;15.82;;;;;;;;;;5024898;28;20041;-67
2021/01/22 09:30:59;;;;;;;36.45;17.75;;;;;;;;;;5030232;28;20038;-68
2021/01/22 09:33:45;;;;;;;31.63;16.10;;;;;;;;;;5030578;28;20128;-67
2021/01/22 09:36:30;;;;;;;26.63;15.63;;;;;;;;;;5027719;28;20037;-67
2021/01/22 09:39:15;;;;;;;33.35;17.80;;;;;;;;;;5032528;28;20442;-67
2021/01/22 09:42:01;;;;;;;32.75;17.88;;;;;;;;;;5029056;28;20116;-67
2021/01/22 09:44:46;;;;;;;29.08;15.70;;;;;;;;;;5028031;28;20041;-68
2021/01/22 09:47:31;;;;;;;29.00;15.95;;;;;;;;;;5026713;28;20049;-68
2021/01/22 09:50:17;;;;;;;27.85;15.50;;;;;;;;;;5026265;28;20041;-67
2021/01/22 09:53:02;;;;;;;29.33;16.52;;;;;;;;;;5027547;28;20080;-67
2021/01/22 09:55:47;;;;;;;31.35;16.55;;;;;;;;;;5030421;28;20143;-67
2021/01/22 09:58:33;;;;;;;37.33;16.73;;;;;;;;;;5027151;28;20034;-67
2021/01/22 10:01:19;;;;;;;29.15;15.45;;;;;;;;;;5025523;28;20045;-67
2021/01/22 10:04:04;;;;;;;21.77;14.07;;;;;;;;;;5027567;28;20107;-68
2021/01/22 10:06:49;;;;;;;23.23;15.32;;;;;;;;;;5031287;28;20045;-68
2021/01/22 10:09:36;;;;;;;28.10;14.75;;;;;;;;;;5032442;28;20107;-68
2021/01/22 10:12:21;;;;;;;26.63;14.25;;;;;;;;;;5039039;28;20049;-67
2021/01/22 10:15:07;;;;;;;29.35;14.93;;;;;;;;;;5029222;28;20041;-68
2021/01/22 10:17:52;;;;;;;22.27;11.60;;;;;;;;;;5038048;28;20372;-68
2021/01/22 10:20:37;;;;;;;19.88;12.45;;;;;;;;;;5040936;28;20041;-67
2021/01/22 10:23:23;;;;;;;22.02;11.73;;;;;;;;;;5028536;28;20496;-68
2021/01/22 10:26:08;;;;;;;22.27;10.43;;;;;;;;;;5026419;28;20042;-68
2021/01/22 10:28:54;;;;;;;24.20;11.35;;;;;;;;;;5028021;28;20049;-68
2021/01/22 10:31:39;;;;;;;22.90;10.05;;;;;;;;;;5027417;28;20136;-68
2021/01/22 10:34:24;;;;;;;24.23;10.00;;;;;;;;;;5027017;28;20068;-68
2021/01/22 10:37:10;;;;;;;17.08;8.48;;;;;;;;;;5026719;28;20160;-68
2021/01/22 10:39:56;;;;;;;15.95;8.48;;;;;;;;;;5030000;28;20045;-69
2021/01/22 10:42:41;;;;;;;22.25;7.90;;;;;;;;;;5022469;28;20395;-68
2021/01/22 10:45:26;;;;;;;15.98;7.60;;;;;;;;;;5021145;28;20046;-68
2021/01/22 10:48:12;;;;;;;20.17;7.97;;;;;;;;;;5023003;28;20556;-69
2021/01/22 10:50:57;;;;;;;18.13;7.60;;;;;;;;;;5021674;28;20041;-68
2021/01/22 10:53:42;;;;;;;14.98;6.55;;;;;;;;;;5021619;28;20484;-68
2021/01/22 10:56:27;;;;;;;19.23;6.95;;;;;;;;;;5024803;28;20069;-68
2021/01/22 10:59:13;;;;;;;15.45;6.15;;;;;;;;;;5031648;28;20132;-68
2021/01/22 11:01:58;;;;;;;13.35;5.78;;;;;;;;;;5032766;28;20042;-69
2021/01/22 11:04:43;;;;;;;12.93;5.22;;;;;;;;;;5012039;28;20487;-68
2021/01/22 11:07:28;;;;;;;13.43;5.03;;;;;;;;;;5011773;28;20054;-69
2021/01/22 11:10:14;;;;;;;16.02;5.60;;;;;;;;;;5031491;28;20053;-68
2021/01/22 11:12:59;;;;;;;17.67;4.68;;;;;;;;;;5031601;28;20053;-69
2021/01/22 11:15:44;;;;;;;13.10;5.10;;;;;;;;;;5033859;28;20484;-69
2021/01/22 11:18:30;;;;;;;12.88;4.53;;;;;;;;;;5027538;28;20067;-68
2021/01/22 11:21:15;;;;;;;13.02;4.78;;;;;;;;;;5037787;28;20033;-68
2021/01/22 11:24:01;;;;;;;11.13;4.75;;;;;;;;;;5051328;28;20489;-69
2021/01/22 11:26:46;;;;;;;13.50;5.00;;;;;;;;;;5049550;28;20045;-68
2021/01/22 11:29:31;;;;;;;16.45;5.07;;;;;;;;;;5051423;28;20045;-68
2021/01/22 11:32:17;;;;;;;17.52;4.80;;;;;;;;;;5036899;28;20038;-68
2021/01/22 11:35:02;;;;;;;15.10;5.32;;;;;;;;;;5028403;28;20416;-69
2021/01/22 11:37:47;;;;;;;12.20;4.97;;;;;;;;;;5040317;28;20046;-69
2021/01/22 11:40:33;;;;;;;12.25;4.28;;;;;;;;;;5031341;28;20046;-69
2021/01/22 11:43:18;;;;;;;10.60;4.22;;;;;;;;;;5034846;28;20042;-69
2021/01/22 11:46:04;;;;;;;15.90;4.32;;;;;;;;;;5035892;28;20116;-69
2021/01/22 11:48:49;;;;;;;17.38;4.82;;;;;;;;;;5045388;23;20045;-66
2021/01/22 11:51:34;;;;;;;16.23;3.92;;;;;;;;;;4995503;28;20043;-68
2021/01/22 11:54:20;;;;;;;16.40;3.70;;;;;;;;;;4995379;28;20050;-67
2021/01/22 11:57:06;;;;;;;10.02;3.40;;;;;;;;;;4995741;28;20043;-67
2021/01/22 11:59:51;;;;;;;14.25;3.92;;;;;;;;;;5005134;28;20042;-67
2021/01/22 12:02:37;;;;;;;18.45;4.22;;;;;;;;;;4994924;28;20050;-68
2021/01/22 12:05:23;;;;;;;21.48;4.32;;;;;;;;;;5000777;28;20109;-67
2021/01/22 12:08:08;;;;;;;11.75;3.65;;;;;;;;;;5014993;28;20046;-67
2021/01/22 12:10:54;;;;;;;13.48;3.97;;;;;;;;;;5014690;28;20112;-67
2021/01/22 12:13:39;;;;;;;13.40;3.78;;;;;;;;;;5014824;28;20050;-68
2021/01/22 12:16:25;;;;;;;12.82;3.95;;;;;;;;;;5014469;28;20117;-67
2021/01/22 12:19:10;;;;;;;17.60;4.05;;;;;;;;;;5014607;28;20045;-67
2021/01/22 12:21:55;;;;;;;10.77;3.53;;;;;;;;;;5014565;28;20046;-68
2021/01/22 12:24:41;;;;;;;19.00;3.70;;;;;;;;;;5014661;28;20058;-68
2021/01/22 12:27:26;;;;;;;12.20;3.45;;;;;;;;;;5013834;28;20522;-67
2021/01/22 12:30:12;;;;;;;14.77;3.13;;;;;;;;;;5014254;28;20408;-68
2021/01/22 12:32:57;;;;;;;11.60;2.88;;;;;;;;;;5014122;28;20136;-67
2021/01/22 12:35:42;;;;;;;10.90;2.53;;;;;;;;;;5014337;28;20046;-66
2021/01/22 12:38:28;;;;;;;16.15;2.60;;;;;;;;;;4994650;28;20046;-68
2021/01/22 12:41:13;;;;;;;15.45;3.63;;;;;;;;;;4994564;28;20051;-67
2021/01/22 12:43:58;;;;;;;11.57;2.78;;;;;;;;;;4994602;28;20043;-68
2021/01/22 12:46:44;;;;;;;17.48;2.92;;;;;;;;;;5009199;28;20046;-68
2021/01/22 12:49:29;;;;;;;12.60;2.50;;;;;;;;;;5013314;28;20050;-67
2021/01/22 12:52:14;;;;;;;15.50;3.05;;;;;;;;;;5013803;28;20046;-68
2021/01/22 12:55:00;;;;;;;18.92;3.08;;;;;;;;;;5023468;28;20045;-68
2021/01/22 12:57:45;;;;;;;15.13;2.72;;;;;;;;;;5018265;28;20045;-67
2021/01/22 13:00:30;;;;;;;15.18;2.38;;;;;;;;;;5021779;28;20046;-68
2021/01/22 13:03:16;;;;;;;20.98;3.90;;;;;;;;;;5024128;28;20049;-68
2021/01/22 13:06:01;;;;;;;16.65;3.67;;;;;;;;;;5012393;28;20423;-68
2021/01/22 13:08:47;;;;;;;14.70;3.17;;;;;;;;;;5013479;28;20050;-68
2021/01/22 13:11:32;;;;;;;12.05;1.90;;;;;;;;;;5003654;28;21126;-68
2021/01/22 13:14:17;;;;;;;7.55;2.33;;;;;;;;;;5002511;28;20050;-67
2021/01/22 13:17:02;;;;;;;13.13;2.83;;;;;;;;;;5003795;28;20050;-68
2021/01/22 13:19:48;;;;;;;11.75;2.20;;;;;;;;;;5000717;28;20041;-68
2021/01/22 13:22:33;;;;;;;13.70;2.65;;;;;;;;;;5001170;28;20078;-67
2021/01/22 13:25:20;;;;;;;11.57;1.90;;;;;;;;;;5002117;28;20038;-68
2021/01/22 13:28:06;;;;;;;16.00;2.15;;;;;;;;;;5003145;28;20041;-68
2021/01/22 13:30:51;;;;;;;10.35;1.98;;;;;;;;;;5006127;28;20160;-67
2021/01/22 13:33:36;;;;;;;12.65;2.22;;;;;;;;;;5013289;28;20050;-67
2021/01/22 13:36:22;;;;;;;6.60;2.22;;;;;;;;;;5013083;28;20480;-67
2021/01/22 13:39:07;;;;;;;12.57;2.28;;;;;;;;;;5005990;28;20125;-67
2021/01/22 13:41:53;;;;;;;7.53;1.60;;;;;;;;;;5020084;28;20050;-67
2021/01/22 13:44:38;;;;;;;11.63;2.55;;;;;;;;;;4993657;28;20050;-67
2021/01/22 13:47:23;;;;;;;12.25;2.15;;;;;;;;;;4993485;28;20042;-67
2021/01/22 13:50:09;;;;;;;10.68;2.47;;;;;;;;;;4993153;28;20046;-67
2021/01/22 13:52:54;;;;;;;11.80;2.38;;;;;;;;;;4993440;28;20133;-67
2021/01/22 13:55:39;;;;;;;10.38;2.03;;;;;;;;;;4993348;28;20512;-67
2021/01/22 13:58:24;;;;;;;11.70;2.30;;;;;;;;;;4993432;28;20054;-67
2021/01/22 14:01:10;;;;;;;9.40;2.35;;;;;;;;;;4992948;28;20053;-67
2021/01/22 14:03:56;;;;;;;10.25;1.90;;;;;;;;;;5019039;28;20039;-67
2021/01/22 14:06:41;;;;;;;12.77;2.30;;;;;;;;;;4993063;28;20050;-67
2021/01/22 14:09:26;;;;;;;12.10;2.20;;;;;;;;;;4992885;28;20129;-67
2021/01/22 14:12:13;;;;;;;10.82;1.88;;;;;;;;;;4992961;28;20409;-67
2021/01/22 14:14:58;;;;;;;10.30;2.05;;;;;;;;;;4993058;28;20504;-67
2021/01/22 14:17:43;;;;;;;12.10;2.47;;;;;;;;;;4992944;28;20424;-71
2021/01/22 14:20:28;;;;;;;15.85;2.25;;;;;;;;;;4992404;28;20500;-72
2021/01/22 14:23:14;;;;;;;8.40;1.80;;;;;;;;;;4991624;28;20501;-71
2021/01/22 14:25:59;;;;;;;18.38;2.90;;;;;;;;;;4992789;28;20050;-71
2021/01/22 14:28:44;;;;;;;12.80;3.20;;;;;;;;;;4992849;28;20049;-71
2021/01/22 14:31:29;;;;;;;9.23;2.40;;;;;;;;;;4992516;28;20562;-71
2021/01/22 14:34:15;;;;;;;7.43;2.08;;;;;;;;;;4992766;28;20050;-70
2021/01/22 14:37:00;;;;;;;9.45;2.17;;;;;;;;;;4992543;28;20049;-71
2021/01/22 14:39:45;;;;;;;13.07;2.47;;;;;;;;;;4992441;28;20175;-71
2021/01/22 14:42:31;;;;;;;12.20;3.03;;;;;;;;;;4992392;28;20042;-71
2021/01/22 14:45:16;;;;;;;9.93;1.95;;;;;;;;;;4992498;28;20046;-71
2021/01/22 14:48:01;;;;;;;10.35;2.28;;;;;;;;;;4992486;28;20382;-72
2021/01/22 14:50:47;;;;;;;13.50;2.58;;;;;;;;;;4992374;28;20050;-72
2021/01/22 14:53:33;;;;;;;11.02;2.50;;;;;;;;;;4973206;28;20082;-70
2021/01/22 14:56:18;;;;;;;14.82;2.70;;;;;;;;;;4973029;28;20074;-70
2021/01/22 14:59:03;;;;;;;9.48;2.17;;;;;;;;;;4973035;28;20043;-71
2021/01/22 15:01:49;;;;;;;10.30;3.08;;;;;;;;;;4977746;28;20042;-71
2021/01/22 15:04:34;;;;;;;13.63;1.98;;;;;;;;;;5018812;28;20456;-71
2021/01/22 15:07:19;;;;;;;10.00;2.30;;;;;;;;;;4992288;28;20422;-71
2021/01/22 15:10:05;;;;;;;10.43;2.65;;;;;;;;;;4987229;28;20047;-70
2021/01/22 15:12:50;;;;;;;7.88;2.60;;;;;;;;;;4984516;28;20046;-70
2021/01/22 15:15:36;;;;;;;13.57;2.17;;;;;;;;;;4998749;28;20042;-70
2021/01/22 15:18:21;;;;;;;8.48;2.30;;;;;;;;;;5000107;28;20043;-70
2021/01/22 15:21:07;;;;;;;11.50;2.30;;;;;;;;;;4998184;28;20039;-70
2021/01/22 15:23:52;;;;;;;24.25;3.72;;;;;;;;;;5002395;28;20500;-70
2021/01/22 15:26:38;;;;;;;14.38;2.45;;;;;;;;;;4996017;28;20832;-71
2021/01/22 15:29:23;;;;;;;11.15;2.10;;;;;;;;;;4996079;28;20500;-70
2021/01/22 15:32:08;;;;;;;11.75;2.17;;;;;;;;;;4995927;28;20042;-70
2021/01/22 21:46:55;;;;;;;53.13;31.27;;;;;;;;;;5149050;27;20392;-71
2021/01/22 21:49:41;;;;;;;55.97;30.40;;;;;;;;;;5149926;27;20031;-71
2021/01/22 21:52:27;;;;;;;67.95;35.28;;;;;;;;;;5149631;27;20129;-71
2021/01/22 21:55:12;;;;;;;50.70;26.88;;;;;;;;;;5128134;27;20047;-71
2021/01/22 21:57:57;;;;;;;49.13;28.73;;;;;;;;;;5125971;27;20432;-71
2021/01/22 22:00:43;;;;;;;54.38;27.80;;;;;;;;;;5129383;28;20099;-71
2021/01/22 22:03:28;;;;;;;60.70;33.40;;;;;;;;;;5128796;27;20051;-72
2021/01/22 22:06:13;;;;;;;51.28;30.38;;;;;;;;;;5128163;28;20036;-71
2021/01/22 22:08:59;;;;;;;58.38;30.05;;;;;;;;;;5128262;27;20055;-71
2021/01/22 22:11:44;;;;;;;60.67;30.23;;;;;;;;;;5128727;28;20046;-72
2021/01/22 22:14:29;;;;;;;55.15;29.35;;;;;;;;;;5130738;27;20043;-72
2021/01/22 22:17:14;;;;;;;61.70;30.15;;;;;;;;;;5128228;27;20138;-72
2021/01/22 22:20:00;;;;;;;52.70;29.73;;;;;;;;;;5128138;28;20515;-72
2021/01/22 22:22:45;;;;;;;62.42;32.38;;;;;;;;;;5128190;27;20386;-72
2021/01/22 22:25:30;;;;;;;51.83;29.27;;;;;;;;;;5127952;28;20043;-72
2021/01/22 22:28:16;;;;;;;54.88;28.50;;;;;;;;;;5137906;27;20050;-72
2021/01/22 22:31:01;;;;;;;66.30;33.38;;;;;;;;;;5127674;28;20046;-72